sensor_id;sensor_type;location;lat;lon;timestamp;temperature;humidity
63875;DHT22;51595;24.180;-110.296;2022-12-18T00:01:29;18.90;99.90
63875;DHT22;51595;24.180;-110.296;2022-12-18T00:03:57;18.90;99.90
63875;DHT22;51595;24.180;-110.296;2022-12-18T00:06:25;18.90;99.90
63875;DHT22;51595;24.180;-110.296;2022-12-18T00:08:52;18.90;99.90
63875;DHT22;51595;24.180;-110.296;2022-12-18T00:11:22;18.90;99.90
63875;DHT22;51595;24.180;-110.296;2022-12-18T00:13:51;18.90;99.90
63875;DHT22;51595;24.180;-110.296;2022-12-18T00:16:20;18.80;99.90
63875;DHT22;51595;24.180;-110.296;2022-12-18T00:18:48;18.90;99.90
63875;DHT22;51595;24.180;-110.296;2022-12-18T00:21:16;18.80;99.90
63875;DHT22;51595;24.180;-110.296;2022-12-18T00:23:43;18.80;99.90
63875;DHT22;51595;24.180;-110.296;2022-12-18T00:26:22;18.70;99.90
63875;DHT22;51595;24.180;-110.296;2022-12-18T00:28:50;18.70;99.90
63875;DHT22;51595;24.180;-110.296;2022-12-18T00:31:19;18.60;99.90
63875;DHT22;51595;24.180;-110.296;2022-12-18T00:33:47;18.60;99.90
63875;DHT22;51595;24.180;-110.296;2022-12-18T00:36:20;18.60;99.90
63875;DHT22;51595;24.180;-110.296;2022-12-18T00:38:47;18.70;99.90
63875;DHT22;51595;24.180;-110.296;2022-12-18T00:41:15;18.60;99.90
63875;DHT22;51595;24.180;-110.296;2022-12-18T00:44:01;18.60;99.90
63875;DHT22;51595;24.180;-110.296;2022-12-18T00:46:28;18.60;99.90
63875;DHT22;51595;24.180;-110.296;2022-12-18T00:48:54;18.50;99.90
63875;DHT22;51595;24.180;-110.296;2022-12-18T00:51:23;18.50;99.90
63875;DHT22;51595;24.180;-110.296;2022-12-18T00:53:50;18.50;99.90
63875;DHT22;51595;24.180;-110.296;2022-12-18T00:56:16;18.50;99.90
63875;DHT22;51595;24.180;-110.296;2022-12-18T00:58:43;18.50;99.90
63875;DHT22;51595;24.180;-110.296;2022-12-18T01:01:09;18.50;99.90
63875;DHT22;51595;24.180;-110.296;2022-12-18T01:03:36;18.50;99.90
63875;DHT22;51595;24.180;-110.296;2022-12-18T01:06:11;18.50;99.90
63875;DHT22;51595;24.180;-110.296;2022-12-18T01:08:38;18.40;99.90
63875;DHT22;51595;24.180;-110.296;2022-12-18T01:11:13;18.40;99.90
63875;DHT22;51595;24.180;-110.296;2022-12-18T01:13:40;18.40;99.90
63875;DHT22;51595;24.180;-110.296;2022-12-18T01:16:07;18.30;99.90
63875;DHT22;51595;24.180;-110.296;2022-12-18T01:18:35;18.30;99.90
63875;DHT22;51595;24.180;-110.296;2022-12-18T01:21:06;18.40;99.90
63875;DHT22;51595;24.180;-110.296;2022-12-18T01:23:33;18.40;99.90
63875;DHT22;51595;24.180;-110.296;2022-12-18T01:26:05;18.30;99.90
63875;DHT22;51595;24.180;-110.296;2022-12-18T01:28:32;18.30;99.90
63875;DHT22;51595;24.180;-110.296;2022-12-18T01:31:10;18.30;99.90
63875;DHT22;51595;24.180;-110.296;2022-12-18T01:33:37;18.30;99.90
63875;DHT22;51595;24.180;-110.296;2022-12-18T01:36:03;18.30;99.90
63875;DHT22;51595;24.180;-110.296;2022-12-18T01:38:30;18.30;99.90
63875;DHT22;51595;24.180;-110.296;2022-12-18T01:41:01;18.30;99.90
63875;DHT22;51595;24.180;-110.296;2022-12-18T01:46:13;18.30;99.90
63875;DHT22;51595;24.180;-110.296;2022-12-18T01:48:41;18.20;99.90
63875;DHT22;51595;24.180;-110.296;2022-12-18T01:51:15;18.20;99.90
63875;DHT22;51595;24.180;-110.296;2022-12-18T01:53:50;18.20;99.90
63875;DHT22;51595;24.180;-110.296;2022-12-18T01:56:18;18.10;99.90
63875;DHT22;51595;24.180;-110.296;2022-12-18T02:01:27;18.10;99.90
63875;DHT22;51595;24.180;-110.296;2022-12-18T02:03:55;18.10;99.90
63875;DHT22;51595;24.180;-110.296;2022-12-18T02:06:29;18.10;99.90
63875;DHT22;51595;24.180;-110.296;2022-12-18T02:09:10;18.00;99.90
63875;DHT22;51595;24.180;-110.296;2022-12-18T02:11:39;18.00;99.90
63875;DHT22;51595;24.180;-110.296;2022-12-18T02:19:45;18.00;99.90
63875;DHT22;51595;24.180;-110.296;2022-12-18T02:22:17;18.00;99.90
63875;DHT22;51595;24.180;-110.296;2022-12-18T02:27:51;18.10;99.90
63875;DHT22;51595;24.180;-110.296;2022-12-18T02:30:19;18.00;99.90
63875;DHT22;51595;24.180;-110.296;2022-12-18T02:32:54;18.00;99.90
63875;DHT22;51595;24.180;-110.296;2022-12-18T02:35:29;17.90;99.90
63875;DHT22;51595;24.180;-110.296;2022-12-18T02:37:57;17.90;99.90
63875;DHT22;51595;24.180;-110.296;2022-12-18T02:40:26;17.80;99.90
63875;DHT22;51595;24.180;-110.296;2022-12-18T02:42:54;17.80;99.90
63875;DHT22;51595;24.180;-110.296;2022-12-18T02:45:23;17.80;99.90
63875;DHT22;51595;24.180;-110.296;2022-12-18T02:47:50;17.80;99.90
63875;DHT22;51595;24.180;-110.296;2022-12-18T02:56:20;17.70;99.90
63875;DHT22;51595;24.180;-110.296;2022-12-18T02:59:22;17.80;99.90
63875;DHT22;51595;24.180;-110.296;2022-12-18T03:07:33;17.80;99.90
63875;DHT22;51595;24.180;-110.296;2022-12-18T03:10:02;17.70;99.90
63875;DHT22;51595;24.180;-110.296;2022-12-18T03:12:32;17.70;99.90
63875;DHT22;51595;24.180;-110.296;2022-12-18T03:17:34;17.70;99.90
63875;DHT22;51595;24.180;-110.296;2022-12-18T03:20:12;17.70;99.90
63875;DHT22;51595;24.180;-110.296;2022-12-18T03:22:42;17.60;99.90
63875;DHT22;51595;24.180;-110.296;2022-12-18T03:25:12;17.60;99.90
63875;DHT22;51595;24.180;-110.296;2022-12-18T03:27:48;17.60;99.90
63875;DHT22;51595;24.180;-110.296;2022-12-18T03:30:16;17.60;99.90
63875;DHT22;51595;24.180;-110.296;2022-12-18T03:32:52;17.50;99.90
63875;DHT22;51595;24.180;-110.296;2022-12-18T03:35:35;17.50;99.90
63875;DHT22;51595;24.180;-110.296;2022-12-18T03:38:04;17.50;99.90
63875;DHT22;51595;24.180;-110.296;2022-12-18T03:40:41;17.50;99.90
63875;DHT22;51595;24.180;-110.296;2022-12-18T03:46:17;17.40;99.90
63875;DHT22;51595;24.180;-110.296;2022-12-18T03:48:52;17.50;99.90
63875;DHT22;51595;24.180;-110.296;2022-12-18T03:51:44;17.60;99.90
63875;DHT22;51595;24.180;-110.296;2022-12-18T03:54:15;17.50;99.90
63875;DHT22;51595;24.180;-110.296;2022-12-18T03:56:46;17.50;99.90
63875;DHT22;51595;24.180;-110.296;2022-12-18T03:59:15;17.50;99.90
63875;DHT22;51595;24.180;-110.296;2022-12-18T04:01:47;17.50;99.90
63875;DHT22;51595;24.180;-110.296;2022-12-18T04:04:15;17.60;99.90
63875;DHT22;51595;24.180;-110.296;2022-12-18T04:06:43;17.60;99.90
63875;DHT22;51595;24.180;-110.296;2022-12-18T04:09:12;17.70;99.90
63875;DHT22;51595;24.180;-110.296;2022-12-18T04:11:40;17.80;99.90
63875;DHT22;51595;24.180;-110.296;2022-12-18T04:14:10;18.00;99.90
63875;DHT22;51595;24.180;-110.296;2022-12-18T04:16:36;18.10;99.90
63875;DHT22;51595;24.180;-110.296;2022-12-18T04:19:03;18.20;99.90
63875;DHT22;51595;24.180;-110.296;2022-12-18T04:21:30;18.20;99.90
63875;DHT22;51595;24.180;-110.296;2022-12-18T04:23:56;18.10;99.90
63875;DHT22;51595;24.180;-110.296;2022-12-18T04:26:23;17.80;99.90
63875;DHT22;51595;24.180;-110.296;2022-12-18T04:28:49;17.80;99.90
63875;DHT22;51595;24.180;-110.296;2022-12-18T04:31:16;17.70;99.90
63875;DHT22;51595;24.180;-110.296;2022-12-18T04:33:42;17.70;99.90
63875;DHT22;51595;24.180;-110.296;2022-12-18T04:36:09;17.70;99.90
63875;DHT22;51595;24.180;-110.296;2022-12-18T04:38:35;17.60;99.90
63875;DHT22;51595;24.180;-110.296;2022-12-18T04:41:03;17.60;99.90
63875;DHT22;51595;24.180;-110.296;2022-12-18T04:43:29;17.60;99.90
63875;DHT22;51595;24.180;-110.296;2022-12-18T04:46:06;17.40;99.90
63875;DHT22;51595;24.180;-110.296;2022-12-18T04:48:34;17.40;99.90
63875;DHT22;51595;24.180;-110.296;2022-12-18T04:51:01;17.50;99.90
63875;DHT22;51595;24.180;-110.296;2022-12-18T04:53:28;17.60;99.90
63875;DHT22;51595;24.180;-110.296;2022-12-18T04:56:11;17.60;99.90
63875;DHT22;51595;24.180;-110.296;2022-12-18T04:58:39;17.50;99.90
63875;DHT22;51595;24.180;-110.296;2022-12-18T05:01:07;17.50;99.90
63875;DHT22;51595;24.180;-110.296;2022-12-18T05:03:34;17.50;99.90
63875;DHT22;51595;24.180;-110.296;2022-12-18T05:06:01;17.50;99.90
63875;DHT22;51595;24.180;-110.296;2022-12-18T05:08:28;17.40;99.90
63875;DHT22;51595;24.180;-110.296;2022-12-18T05:11:03;17.40;99.90
63875;DHT22;51595;24.180;-110.296;2022-12-18T05:13:30;17.40;99.90
63875;DHT22;51595;24.180;-110.296;2022-12-18T05:15:57;17.40;99.90
63875;DHT22;51595;24.180;-110.296;2022-12-18T05:18:24;17.40;99.90
63875;DHT22;51595;24.180;-110.296;2022-12-18T05:20:52;17.40;99.90
63875;DHT22;51595;24.180;-110.296;2022-12-18T05:23:20;17.40;99.90
63875;DHT22;51595;24.180;-110.296;2022-12-18T05:25:51;17.60;99.90
63875;DHT22;51595;24.180;-110.296;2022-12-18T05:28:18;17.60;99.90
63875;DHT22;51595;24.180;-110.296;2022-12-18T05:30:48;17.70;99.90
63875;DHT22;51595;24.180;-110.296;2022-12-18T05:33:15;17.70;99.90
63875;DHT22;51595;24.180;-110.296;2022-12-18T05:35:42;17.80;99.90
63875;DHT22;51595;24.180;-110.296;2022-12-18T05:38:09;17.80;99.90
63875;DHT22;51595;24.180;-110.296;2022-12-18T05:40:36;17.80;99.90
63875;DHT22;51595;24.180;-110.296;2022-12-18T05:43:02;17.70;99.90
63875;DHT22;51595;24.180;-110.296;2022-12-18T05:45:29;17.70;99.90
63875;DHT22;51595;24.180;-110.296;2022-12-18T05:47:55;17.70;99.90
63875;DHT22;51595;24.180;-110.296;2022-12-18T05:50:23;17.70;99.90
63875;DHT22;51595;24.180;-110.296;2022-12-18T05:52:54;17.80;99.90
63875;DHT22;51595;24.180;-110.296;2022-12-18T05:55:21;17.60;99.90
63875;DHT22;51595;24.180;-110.296;2022-12-18T05:57:47;17.30;99.90
63875;DHT22;51595;24.180;-110.296;2022-12-18T06:00:14;17.30;99.90
63875;DHT22;51595;24.180;-110.296;2022-12-18T06:02:40;17.10;99.90
63875;DHT22;51595;24.180;-110.296;2022-12-18T06:05:07;17.00;99.90
63875;DHT22;51595;24.180;-110.296;2022-12-18T06:07:34;17.00;99.90
63875;DHT22;51595;24.180;-110.296;2022-12-18T06:10:01;17.00;99.90
63875;DHT22;51595;24.180;-110.296;2022-12-18T06:12:27;17.00;99.90
63875;DHT22;51595;24.180;-110.296;2022-12-18T06:14:54;16.90;99.90
63875;DHT22;51595;24.180;-110.296;2022-12-18T06:17:20;16.90;99.90
63875;DHT22;51595;24.180;-110.296;2022-12-18T06:19:46;16.90;99.90
63875;DHT22;51595;24.180;-110.296;2022-12-18T06:22:13;16.90;99.90
63875;DHT22;51595;24.180;-110.296;2022-12-18T06:24:39;16.80;99.90
63875;DHT22;51595;24.180;-110.296;2022-12-18T06:27:06;16.80;99.90
63875;DHT22;51595;24.180;-110.296;2022-12-18T06:29:32;16.70;99.90
63875;DHT22;51595;24.180;-110.296;2022-12-18T06:31:58;16.70;99.90
63875;DHT22;51595;24.180;-110.296;2022-12-18T06:36:54;16.80;99.90
63875;DHT22;51595;24.180;-110.296;2022-12-18T06:39:20;17.00;99.90
63875;DHT22;51595;24.180;-110.296;2022-12-18T06:41:48;17.10;99.90
63875;DHT22;51595;24.180;-110.296;2022-12-18T06:44:14;17.10;99.90
63875;DHT22;51595;24.180;-110.296;2022-12-18T06:46:41;17.10;99.90
63875;DHT22;51595;24.180;-110.296;2022-12-18T06:49:07;17.10;99.90
63875;DHT22;51595;24.180;-110.296;2022-12-18T06:51:35;17.10;99.90
63875;DHT22;51595;24.180;-110.296;2022-12-18T06:54:01;17.10;99.90
63875;DHT22;51595;24.180;-110.296;2022-12-18T06:56:28;17.20;99.90
63875;DHT22;51595;24.180;-110.296;2022-12-18T06:58:55;17.40;99.90
63875;DHT22;51595;24.180;-110.296;2022-12-18T07:01:22;17.40;99.90
63875;DHT22;51595;24.180;-110.296;2022-12-18T07:03:55;17.50;99.90
63875;DHT22;51595;24.180;-110.296;2022-12-18T07:06:24;17.40;99.90
63875;DHT22;51595;24.180;-110.296;2022-12-18T07:08:51;17.00;99.90
63875;DHT22;51595;24.180;-110.296;2022-12-18T07:11:18;16.80;99.90
63875;DHT22;51595;24.180;-110.296;2022-12-18T07:13:47;16.80;99.90
63875;DHT22;51595;24.180;-110.296;2022-12-18T07:16:16;16.90;99.90
63875;DHT22;51595;24.180;-110.296;2022-12-18T07:18:43;17.10;99.90
63875;DHT22;51595;24.180;-110.296;2022-12-18T07:21:13;17.10;99.90
63875;DHT22;51595;24.180;-110.296;2022-12-18T07:23:40;17.30;99.90
63875;DHT22;51595;24.180;-110.296;2022-12-18T07:26:09;17.40;99.90
63875;DHT22;51595;24.180;-110.296;2022-12-18T07:28:36;17.40;99.90
63875;DHT22;51595;24.180;-110.296;2022-12-18T07:31:08;17.40;99.90
63875;DHT22;51595;24.180;-110.296;2022-12-18T07:33:35;17.40;99.90
63875;DHT22;51595;24.180;-110.296;2022-12-18T07:36:04;17.30;99.90
63875;DHT22;51595;24.180;-110.296;2022-12-18T07:38:31;17.20;99.90
63875;DHT22;51595;24.180;-110.296;2022-12-18T07:41:11;16.90;99.90
63875;DHT22;51595;24.180;-110.296;2022-12-18T07:43:38;16.90;99.90
63875;DHT22;51595;24.180;-110.296;2022-12-18T07:46:06;16.70;99.90
63875;DHT22;51595;24.180;-110.296;2022-12-18T07:48:33;16.50;99.90
63875;DHT22;51595;24.180;-110.296;2022-12-18T07:51:05;16.50;99.90
63875;DHT22;51595;24.180;-110.296;2022-12-18T07:53:33;16.60;99.90
63875;DHT22;51595;24.180;-110.296;2022-12-18T07:56:01;16.60;99.90
63875;DHT22;51595;24.180;-110.296;2022-12-18T07:58:51;16.60;99.90
63875;DHT22;51595;24.180;-110.296;2022-12-18T08:01:18;16.80;99.90
63875;DHT22;51595;24.180;-110.296;2022-12-18T08:03:44;17.00;99.90
63875;DHT22;51595;24.180;-110.296;2022-12-18T08:06:10;17.00;99.90
63875;DHT22;51595;24.180;-110.296;2022-12-18T08:08:37;17.30;99.90
63875;DHT22;51595;24.180;-110.296;2022-12-18T08:11:03;17.30;99.90
63875;DHT22;51595;24.180;-110.296;2022-12-18T08:13:30;17.30;99.90
63875;DHT22;51595;24.180;-110.296;2022-12-18T08:16:04;17.30;99.90
63875;DHT22;51595;24.180;-110.296;2022-12-18T08:18:32;17.30;99.90
63875;DHT22;51595;24.180;-110.296;2022-12-18T08:21:10;17.30;99.90
63875;DHT22;51595;24.180;-110.296;2022-12-18T08:23:37;17.20;99.90
63875;DHT22;51595;24.180;-110.296;2022-12-18T08:26:03;17.20;99.90
63875;DHT22;51595;24.180;-110.296;2022-12-18T08:28:30;17.10;99.90
63875;DHT22;51595;24.180;-110.296;2022-12-18T08:30:56;16.80;99.90
63875;DHT22;51595;24.180;-110.296;2022-12-18T08:33:22;16.80;99.90
63875;DHT22;51595;24.180;-110.296;2022-12-18T08:35:49;16.70;99.90
63875;DHT22;51595;24.180;-110.296;2022-12-18T08:38:15;16.70;99.90
63875;DHT22;51595;24.180;-110.296;2022-12-18T08:40:42;16.70;99.90
63875;DHT22;51595;24.180;-110.296;2022-12-18T08:43:10;16.60;99.90
63875;DHT22;51595;24.180;-110.296;2022-12-18T08:45:54;16.80;99.90
63875;DHT22;51595;24.180;-110.296;2022-12-18T08:50:57;17.00;99.90
63875;DHT22;51595;24.180;-110.296;2022-12-18T08:53:24;17.10;99.90
63875;DHT22;51595;24.180;-110.296;2022-12-18T08:55:51;17.20;99.90
63875;DHT22;51595;24.180;-110.296;2022-12-18T08:58:21;17.20;99.90
63875;DHT22;51595;24.180;-110.296;2022-12-18T09:00:49;17.30;99.90
63875;DHT22;51595;24.180;-110.296;2022-12-18T09:03:17;17.30;99.90
63875;DHT22;51595;24.180;-110.296;2022-12-18T09:05:48;17.50;99.90
63875;DHT22;51595;24.180;-110.296;2022-12-18T09:08:20;17.50;99.90
63875;DHT22;51595;24.180;-110.296;2022-12-18T09:10:49;17.50;99.90
63875;DHT22;51595;24.180;-110.296;2022-12-18T09:13:16;17.60;99.90
63875;DHT22;51595;24.180;-110.296;2022-12-18T09:15:45;17.60;99.90
63875;DHT22;51595;24.180;-110.296;2022-12-18T09:18:13;17.50;99.90
63875;DHT22;51595;24.180;-110.296;2022-12-18T09:20:40;17.40;99.90
63875;DHT22;51595;24.180;-110.296;2022-12-18T09:23:10;17.40;99.90
63875;DHT22;51595;24.180;-110.296;2022-12-18T09:25:38;17.50;99.90
63875;DHT22;51595;24.180;-110.296;2022-12-18T09:28:13;17.40;99.90
63875;DHT22;51595;24.180;-110.296;2022-12-18T09:30:46;17.60;99.90
63875;DHT22;51595;24.180;-110.296;2022-12-18T09:33:13;18.00;99.90
63875;DHT22;51595;24.180;-110.296;2022-12-18T09:35:40;18.00;99.90
63875;DHT22;51595;24.180;-110.296;2022-12-18T09:38:09;18.00;99.90
63875;DHT22;51595;24.180;-110.296;2022-12-18T09:40:42;18.00;99.90
63875;DHT22;51595;24.180;-110.296;2022-12-18T09:43:46;17.80;99.90
63875;DHT22;51595;24.180;-110.296;2022-12-18T09:46:14;17.80;99.90
63875;DHT22;51595;24.180;-110.296;2022-12-18T09:48:46;17.60;99.90
63875;DHT22;51595;24.180;-110.296;2022-12-18T09:51:37;17.70;99.90
63875;DHT22;51595;24.180;-110.296;2022-12-18T09:54:11;17.70;99.90
63875;DHT22;51595;24.180;-110.296;2022-12-18T09:56:41;17.90;99.90
63875;DHT22;51595;24.180;-110.296;2022-12-18T09:59:37;17.90;99.90
63875;DHT22;51595;24.180;-110.296;2022-12-18T10:02:31;18.00;99.90
63875;DHT22;51595;24.180;-110.296;2022-12-18T10:05:05;18.10;99.90
63875;DHT22;51595;24.180;-110.296;2022-12-18T10:12:55;17.80;99.90
63875;DHT22;51595;24.180;-110.296;2022-12-18T10:15:41;17.90;99.90
63875;DHT22;51595;24.180;-110.296;2022-12-18T10:20:56;17.90;99.90
63875;DHT22;51595;24.180;-110.296;2022-12-18T10:28:37;17.70;99.90
63875;DHT22;51595;24.180;-110.296;2022-12-18T10:31:21;18.00;99.90
63875;DHT22;51595;24.180;-110.296;2022-12-18T10:33:47;17.90;99.90
63875;DHT22;51595;24.180;-110.296;2022-12-18T10:36:15;17.80;99.90
63875;DHT22;51595;24.180;-110.296;2022-12-18T10:38:42;17.90;99.90
63875;DHT22;51595;24.180;-110.296;2022-12-18T10:44:21;18.00;99.90
63875;DHT22;51595;24.180;-110.296;2022-12-18T10:46:52;17.90;99.90
63875;DHT22;51595;24.180;-110.296;2022-12-18T10:49:29;17.70;99.90
63875;DHT22;51595;24.180;-110.296;2022-12-18T10:52:18;17.00;99.90
63875;DHT22;51595;24.180;-110.296;2022-12-18T10:55:01;17.00;99.90
63875;DHT22;51595;24.180;-110.296;2022-12-18T10:59:58;17.00;99.90
63875;DHT22;51595;24.180;-110.296;2022-12-18T11:02:34;17.10;99.90
63875;DHT22;51595;24.180;-110.296;2022-12-18T11:05:01;17.00;99.90
63875;DHT22;51595;24.180;-110.296;2022-12-18T11:07:49;17.00;99.90
63875;DHT22;51595;24.180;-110.296;2022-12-18T11:10:40;16.80;99.90
63875;DHT22;51595;24.180;-110.296;2022-12-18T11:13:21;16.60;99.90
63875;DHT22;51595;24.180;-110.296;2022-12-18T11:15:49;16.70;99.90
63875;DHT22;51595;24.180;-110.296;2022-12-18T11:18:28;16.70;99.90
63875;DHT22;51595;24.180;-110.296;2022-12-18T11:21:16;16.80;99.90
63875;DHT22;51595;24.180;-110.296;2022-12-18T11:23:53;17.00;99.90
63875;DHT22;51595;24.180;-110.296;2022-12-18T11:26:20;17.10;99.90
63875;DHT22;51595;24.180;-110.296;2022-12-18T11:28:51;17.20;99.90
63875;DHT22;51595;24.180;-110.296;2022-12-18T11:31:24;17.30;99.90
63875;DHT22;51595;24.180;-110.296;2022-12-18T11:36:23;17.40;99.90
63875;DHT22;51595;24.180;-110.296;2022-12-18T11:38:51;17.30;99.90
63875;DHT22;51595;24.180;-110.296;2022-12-18T11:41:38;17.40;99.90
63875;DHT22;51595;24.180;-110.296;2022-12-18T11:44:36;17.60;99.90
63875;DHT22;51595;24.180;-110.296;2022-12-18T11:50:03;17.40;99.90
63875;DHT22;51595;24.180;-110.296;2022-12-18T11:52:39;17.30;99.90
63875;DHT22;51595;24.180;-110.296;2022-12-18T11:55:15;17.30;99.90
63875;DHT22;51595;24.180;-110.296;2022-12-18T12:00:21;17.40;99.90
63875;DHT22;51595;24.180;-110.296;2022-12-18T12:11:51;17.70;99.90
63875;DHT22;51595;24.180;-110.296;2022-12-18T12:17:11;18.40;99.90
63875;DHT22;51595;24.180;-110.296;2022-12-18T12:20:01;18.40;99.90
63875;DHT22;51595;24.180;-110.296;2022-12-18T12:22:58;18.30;99.90
63875;DHT22;51595;24.180;-110.296;2022-12-18T12:25:44;18.30;99.90
63875;DHT22;51595;24.180;-110.296;2022-12-18T12:28:19;18.10;99.90
63875;DHT22;51595;24.180;-110.296;2022-12-18T12:33:48;18.00;99.90
63875;DHT22;51595;24.180;-110.296;2022-12-18T12:39:13;18.00;99.90
63875;DHT22;51595;24.180;-110.296;2022-12-18T12:41:42;18.00;99.90
63875;DHT22;51595;24.180;-110.296;2022-12-18T12:44:33;17.70;99.90
63875;DHT22;51595;24.180;-110.296;2022-12-18T12:47:24;17.80;99.90
63875;DHT22;51595;24.180;-110.296;2022-12-18T12:49:52;17.80;99.90
63875;DHT22;51595;24.180;-110.296;2022-12-18T12:52:39;18.00;99.90
63875;DHT22;51595;24.180;-110.296;2022-12-18T12:55:20;18.10;99.90
63875;DHT22;51595;24.180;-110.296;2022-12-18T13:04:36;18.40;99.90
63875;DHT22;51595;24.180;-110.296;2022-12-18T13:13:00;18.20;99.90
63875;DHT22;51595;24.180;-110.296;2022-12-18T13:15:49;18.00;99.90
63875;DHT22;51595;24.180;-110.296;2022-12-18T13:18:20;18.00;99.90
63875;DHT22;51595;24.180;-110.296;2022-12-18T13:21:04;18.20;99.90
63875;DHT22;51595;24.180;-110.296;2022-12-18T13:23:36;19.00;99.90
63875;DHT22;51595;24.180;-110.296;2022-12-18T13:34:21;18.30;99.90
63875;DHT22;51595;24.180;-110.296;2022-12-18T13:36:48;18.30;99.90
63875;DHT22;51595;24.180;-110.296;2022-12-18T13:41:53;18.20;99.90
63875;DHT22;51595;24.180;-110.296;2022-12-18T13:46:59;18.10;99.90
63875;DHT22;51595;24.180;-110.296;2022-12-18T13:49:47;17.90;99.90
63875;DHT22;51595;24.180;-110.296;2022-12-18T13:52:36;17.90;99.90
63875;DHT22;51595;24.180;-110.296;2022-12-18T13:55:14;17.90;99.90
63875;DHT22;51595;24.180;-110.296;2022-12-18T13:57:41;17.80;99.90
63875;DHT22;51595;24.180;-110.296;2022-12-18T14:00:25;17.70;99.90
63875;DHT22;51595;24.180;-110.296;2022-12-18T14:02:56;17.60;99.90
63875;DHT22;51595;24.180;-110.296;2022-12-18T14:05:32;17.60;99.90
63875;DHT22;51595;24.180;-110.296;2022-12-18T14:08:10;17.40;99.90
63875;DHT22;51595;24.180;-110.296;2022-12-18T14:10:41;17.40;99.90
63875;DHT22;51595;24.180;-110.296;2022-12-18T14:13:10;17.40;99.90
63875;DHT22;51595;24.180;-110.296;2022-12-18T14:15:43;17.40;99.90
63875;DHT22;51595;24.180;-110.296;2022-12-18T14:20:58;17.90;99.90
63875;DHT22;51595;24.180;-110.296;2022-12-18T14:26:31;18.40;99.90
63875;DHT22;51595;24.180;-110.296;2022-12-18T14:29:09;18.40;99.90
63875;DHT22;51595;24.180;-110.296;2022-12-18T14:31:43;18.50;99.90
63875;DHT22;51595;24.180;-110.296;2022-12-18T14:34:19;18.50;99.90
63875;DHT22;51595;24.180;-110.296;2022-12-18T14:36:51;18.50;99.90
63875;DHT22;51595;24.180;-110.296;2022-12-18T14:39:19;18.40;99.90
63875;DHT22;51595;24.180;-110.296;2022-12-18T14:41:45;18.40;99.90
63875;DHT22;51595;24.180;-110.296;2022-12-18T14:44:14;18.60;99.90
63875;DHT22;51595;24.180;-110.296;2022-12-18T14:46:45;18.60;99.90
63875;DHT22;51595;24.180;-110.296;2022-12-18T14:49:30;18.80;99.90
63875;DHT22;51595;24.180;-110.296;2022-12-18T14:52:13;18.80;99.90
63875;DHT22;51595;24.180;-110.296;2022-12-18T14:54:49;18.70;99.90
63875;DHT22;51595;24.180;-110.296;2022-12-18T14:57:31;18.60;99.90
63875;DHT22;51595;24.180;-110.296;2022-12-18T15:00:14;18.20;99.90
63875;DHT22;51595;24.180;-110.296;2022-12-18T15:02:41;18.30;99.90
63875;DHT22;51595;24.180;-110.296;2022-12-18T15:05:19;18.30;99.90
63875;DHT22;51595;24.180;-110.296;2022-12-18T15:07:49;18.50;99.90
63875;DHT22;51595;24.180;-110.296;2022-12-18T15:10:33;19.60;99.90
63875;DHT22;51595;24.180;-110.296;2022-12-18T15:18:11;20.10;99.90
63875;DHT22;51595;24.180;-110.296;2022-12-18T15:20:49;20.10;99.90
63875;DHT22;51595;24.180;-110.296;2022-12-18T15:26:03;20.00;99.90
63875;DHT22;51595;24.180;-110.296;2022-12-18T15:28:50;20.10;99.90
63875;DHT22;51595;24.180;-110.296;2022-12-18T15:33:59;20.20;99.90
63875;DHT22;51595;24.180;-110.296;2022-12-18T15:36:26;20.20;99.90
63875;DHT22;51595;24.180;-110.296;2022-12-18T15:38:54;20.30;99.90
63875;DHT22;51595;24.180;-110.296;2022-12-18T15:41:22;20.30;99.90
63875;DHT22;51595;24.180;-110.296;2022-12-18T15:43:51;20.50;99.90
63875;DHT22;51595;24.180;-110.296;2022-12-18T15:46:21;20.90;99.90
63875;DHT22;51595;24.180;-110.296;2022-12-18T15:48:52;20.90;99.90
63875;DHT22;51595;24.180;-110.296;2022-12-18T15:53:47;21.50;99.90
63875;DHT22;51595;24.180;-110.296;2022-12-18T15:56:15;21.60;99.90
63875;DHT22;51595;24.180;-110.296;2022-12-18T15:59:00;21.70;99.90
63875;DHT22;51595;24.180;-110.296;2022-12-18T16:01:29;21.80;99.90
63875;DHT22;51595;24.180;-110.296;2022-12-18T16:03:57;22.00;99.90
63875;DHT22;51595;24.180;-110.296;2022-12-18T16:06:23;21.80;99.90
63875;DHT22;51595;24.180;-110.296;2022-12-18T16:08:50;21.70;99.90
63875;DHT22;51595;24.180;-110.296;2022-12-18T16:11:22;21.70;99.90
63875;DHT22;51595;24.180;-110.296;2022-12-18T16:14:29;21.70;99.90
63875;DHT22;51595;24.180;-110.296;2022-12-18T16:16:57;21.30;99.90
63875;DHT22;51595;24.180;-110.296;2022-12-18T16:19:25;21.30;99.90
63875;DHT22;51595;24.180;-110.296;2022-12-18T16:21:54;21.10;99.90
63875;DHT22;51595;24.180;-110.296;2022-12-18T16:24:24;20.90;99.90
63875;DHT22;51595;24.180;-110.296;2022-12-18T16:26:52;20.90;99.90
63875;DHT22;51595;24.180;-110.296;2022-12-18T16:29:20;20.90;99.90
63875;DHT22;51595;24.180;-110.296;2022-12-18T16:31:51;20.90;99.90
63875;DHT22;51595;24.180;-110.296;2022-12-18T16:34:26;21.30;99.90
63875;DHT22;51595;24.180;-110.296;2022-12-18T16:37:04;21.20;99.90
63875;DHT22;51595;24.180;-110.296;2022-12-18T16:39:31;21.30;99.90
63875;DHT22;51595;24.180;-110.296;2022-12-18T16:42:00;21.00;99.90
63875;DHT22;51595;24.180;-110.296;2022-12-18T16:44:28;21.10;99.90
63875;DHT22;51595;24.180;-110.296;2022-12-18T16:46:56;21.00;99.90
63875;DHT22;51595;24.180;-110.296;2022-12-18T16:49:28;20.80;99.90
63875;DHT22;51595;24.180;-110.296;2022-12-18T16:52:03;21.00;99.90
63875;DHT22;51595;24.180;-110.296;2022-12-18T16:54:30;21.20;99.90
63875;DHT22;51595;24.180;-110.296;2022-12-18T16:56:58;21.10;99.90
63875;DHT22;51595;24.180;-110.296;2022-12-18T16:59:26;21.50;99.90
63875;DHT22;51595;24.180;-110.296;2022-12-18T17:01:52;21.80;99.90
63875;DHT22;51595;24.180;-110.296;2022-12-18T17:04:20;22.20;99.90
63875;DHT22;51595;24.180;-110.296;2022-12-18T17:06:47;22.10;99.90
63875;DHT22;51595;24.180;-110.296;2022-12-18T17:09:19;22.10;99.90
63875;DHT22;51595;24.180;-110.296;2022-12-18T17:11:48;22.20;99.90
63875;DHT22;51595;24.180;-110.296;2022-12-18T17:14:18;22.80;99.90
63875;DHT22;51595;24.180;-110.296;2022-12-18T17:16:45;23.60;99.90
63875;DHT22;51595;24.180;-110.296;2022-12-18T17:19:12;23.70;99.90